createdAt,value
2023-04-19T00:00:26.429Z,26.52
2023-04-19T00:01:26.528Z,26.50
2023-04-19T00:02:26.666Z,26.50
2023-04-19T00:03:26.769Z,26.48
2023-04-19T00:04:26.892Z,26.50
2023-04-19T00:05:26.974Z,26.49
2023-04-19T00:06:26.782Z,26.48
2023-04-19T00:07:26.845Z,26.49
2023-04-19T00:08:26.961Z,26.50
2023-04-19T00:09:26.882Z,26.50
2023-04-19T00:10:26.968Z,26.49
2023-04-19T00:11:26.982Z,26.49
2023-04-19T00:12:27.008Z,26.49
2023-04-19T00:13:27.087Z,26.49
2023-04-19T00:14:27.122Z,26.48
2023-04-19T00:15:27.248Z,26.48
2023-04-19T00:16:27.306Z,26.52
2023-04-19T00:17:27.396Z,26.48
2023-04-19T00:18:27.320Z,26.48
2023-04-19T00:19:27.395Z,26.49
2023-04-19T00:20:27.435Z,26.48
2023-04-19T00:21:27.489Z,26.49
2023-04-19T00:22:27.488Z,26.48
2023-04-19T00:23:27.499Z,26.48
2023-04-19T00:24:27.598Z,26.46
2023-04-19T00:25:27.571Z,26.48
2023-04-19T00:26:27.596Z,26.48
2023-04-19T00:27:27.627Z,26.48
2023-04-19T00:28:28.048Z,26.45
2023-04-19T00:29:27.743Z,26.46
2023-04-19T00:30:27.775Z,26.46
2023-04-19T00:31:27.906Z,26.48
2023-04-19T00:32:27.843Z,26.45
2023-04-19T00:33:27.876Z,26.48
2023-04-19T00:34:27.952Z,26.45
2023-04-19T00:35:27.961Z,26.46
2023-04-19T00:36:27.988Z,26.46
2023-04-19T00:37:28.054Z,26.45
2023-04-19T00:38:28.010Z,26.45
2023-04-19T00:39:28.022Z,26.45
2023-04-19T00:40:28.040Z,26.45
2023-04-19T00:41:28.064Z,26.46
2023-04-19T00:42:28.103Z,26.45
2023-04-19T00:43:28.105Z,26.43
2023-04-19T00:44:28.122Z,26.42
2023-04-19T00:45:28.168Z,26.43
2023-04-19T00:46:28.174Z,26.43
2023-04-19T00:47:28.290Z,26.45
2023-04-19T00:48:28.253Z,26.42
2023-04-19T00:49:28.299Z,26.45
2023-04-19T00:50:28.301Z,26.45
2023-04-19T00:51:28.309Z,26.43
2023-04-19T00:52:28.359Z,26.42
2023-04-19T00:53:28.334Z,26.42
2023-04-19T00:54:28.346Z,26.42
2023-04-19T00:55:28.401Z,26.40
2023-04-19T00:56:28.361Z,26.42
2023-04-19T00:57:28.422Z,26.43
2023-04-19T00:58:28.428Z,26.40
2023-04-19T00:59:28.419Z,26.43
2023-04-19T01:00:28.426Z,26.40
2023-04-19T01:01:28.436Z,26.40
2023-04-19T01:02:28.561Z,26.42
2023-04-19T01:03:28.596Z,26.42
2023-04-19T01:04:28.596Z,26.40
2023-04-19T01:05:28.534Z,26.42
2023-04-19T01:06:28.535Z,26.42
2023-04-19T01:07:28.521Z,26.39
2023-04-19T01:08:28.538Z,26.42
2023-04-19T01:09:28.543Z,26.40
2023-04-19T01:10:28.536Z,26.40
2023-04-19T01:11:28.551Z,26.39
2023-04-19T01:12:28.564Z,26.40
2023-04-19T01:13:28.561Z,26.42
2023-04-19T01:14:28.554Z,26.40
2023-04-19T01:15:28.584Z,26.39
2023-04-19T01:16:28.603Z,26.39
2023-04-19T01:17:28.567Z,26.38
2023-04-19T01:18:28.563Z,26.39
2023-04-19T01:19:28.563Z,26.39
2023-04-19T01:20:28.580Z,26.40
2023-04-19T01:21:28.569Z,26.38
2023-04-19T01:22:28.563Z,26.38
2023-04-19T01:23:28.544Z,26.38
2023-04-19T01:24:28.605Z,26.38
2023-04-19T01:25:28.562Z,26.39
2023-04-19T01:26:28.534Z,26.38
2023-04-19T01:27:28.603Z,26.36
2023-04-19T01:28:28.566Z,26.38
2023-04-19T01:29:28.572Z,26.36
2023-04-19T01:30:28.583Z,26.36
2023-04-19T01:31:28.668Z,26.36
2023-04-19T01:32:28.604Z,26.38
2023-04-19T01:33:28.591Z,26.36
2023-04-19T01:34:28.617Z,26.32
2023-04-19T01:35:28.604Z,26.36
2023-04-19T01:36:28.600Z,26.36
2023-04-19T01:37:28.612Z,26.38
2023-04-19T01:38:28.589Z,26.35
2023-04-19T01:39:28.647Z,26.35
2023-04-19T01:40:28.616Z,26.34
2023-04-19T01:41:28.604Z,26.36
2023-04-19T01:42:28.612Z,26.34
2023-04-19T01:43:28.616Z,26.34
2023-04-19T01:44:28.631Z,26.36
2023-04-19T01:45:28.663Z,26.34
2023-04-19T01:46:28.660Z,26.34
2023-04-19T01:47:28.671Z,26.36
2023-04-19T01:48:28.663Z,26.36
2023-04-19T01:49:28.660Z,26.34
2023-04-19T01:50:28.681Z,26.36
2023-04-19T01:51:28.685Z,26.34
2023-04-19T01:52:28.664Z,26.32
2023-04-19T01:53:28.685Z,26.34
2023-04-19T01:54:28.648Z,26.34
2023-04-19T01:55:28.654Z,26.34
2023-04-19T01:56:28.752Z,26.34
2023-04-19T01:57:28.647Z,26.34
2023-04-19T01:58:28.661Z,26.32
2023-04-19T01:59:28.685Z,26.34
2023-04-19T02:00:28.735Z,26.31
2023-04-19T02:01:28.742Z,26.34
2023-04-19T02:02:28.798Z,26.34
2023-04-19T02:03:28.766Z,26.31
2023-04-19T02:04:28.651Z,26.32
2023-04-19T02:05:28.680Z,26.32
2023-04-19T02:06:28.688Z,26.31
2023-04-19T02:07:28.679Z,26.31
2023-04-19T02:08:28.708Z,26.31
2023-04-19T02:09:28.690Z,26.31
2023-04-19T02:10:28.628Z,26.34
2023-04-19T02:11:28.638Z,26.32
2023-04-19T02:12:28.624Z,26.31
2023-04-19T02:13:28.609Z,26.32
2023-04-19T02:14:28.674Z,26.31
2023-04-19T02:15:28.673Z,26.31
2023-04-19T02:16:28.654Z,26.29
2023-04-19T02:17:28.650Z,26.34
2023-04-19T02:18:28.652Z,26.32
2023-04-19T02:19:28.665Z,26.31
2023-04-19T02:20:28.622Z,26.32
2023-04-19T02:21:28.693Z,26.28
2023-04-19T02:22:28.688Z,26.29
2023-04-19T02:23:28.637Z,26.29
2023-04-19T02:24:28.646Z,26.29
2023-04-19T02:25:28.670Z,26.28
2023-04-19T02:26:28.650Z,26.31
2023-04-19T02:27:28.642Z,26.29
2023-04-19T02:28:28.644Z,26.31
2023-04-19T02:29:28.663Z,26.28
2023-04-19T02:30:28.666Z,26.28
2023-04-19T02:31:28.654Z,26.31
2023-04-19T02:32:28.724Z,26.29
2023-04-19T02:33:28.666Z,26.29
2023-04-19T02:34:28.660Z,26.28
2023-04-19T02:35:28.703Z,26.26
2023-04-19T02:36:28.697Z,26.26
2023-04-19T02:37:28.688Z,26.29
2023-04-19T02:38:28.686Z,26.28
2023-04-19T02:39:28.695Z,26.28
2023-04-19T02:40:28.642Z,26.28
2023-04-19T02:41:28.647Z,26.29
2023-04-19T02:42:28.676Z,26.26
2023-04-19T02:43:28.670Z,26.26
2023-04-19T02:44:28.633Z,26.28
2023-04-19T02:45:28.634Z,26.25
2023-04-19T02:46:28.735Z,26.25
2023-04-19T02:47:28.720Z,26.25
2023-04-19T02:48:28.656Z,26.28
2023-04-19T02:49:28.663Z,26.26
2023-04-19T02:50:28.678Z,26.26
2023-04-19T02:51:28.668Z,26.28
2023-04-19T02:52:28.781Z,26.26
2023-04-19T02:53:28.693Z,26.26
2023-04-19T02:54:28.651Z,26.25
2023-04-19T02:55:28.700Z,26.25
2023-04-19T02:56:28.703Z,26.25
2023-04-19T02:57:28.713Z,26.26
2023-04-19T02:58:28.717Z,26.25
2023-04-19T02:59:28.691Z,26.25
2023-04-19T03:00:28.986Z,26.25
2023-04-19T03:01:28.778Z,26.25
2023-04-19T03:02:28.806Z,26.22
2023-04-19T03:03:28.774Z,26.25
2023-04-19T03:04:28.844Z,26.25
2023-04-19T03:05:28.708Z,26.26
2023-04-19T03:06:28.722Z,26.22
2023-04-19T03:07:28.711Z,26.24
2023-04-19T03:08:28.700Z,26.24
2023-04-19T03:09:28.682Z,26.25
2023-04-19T03:10:28.732Z,26.22
2023-04-19T03:11:28.742Z,26.24
2023-04-19T03:12:28.706Z,26.25
2023-04-19T03:13:28.729Z,26.24
2023-04-19T03:14:29.491Z,26.22
2023-04-19T03:15:28.734Z,26.25
2023-04-19T03:16:28.837Z,26.22
2023-04-19T03:17:28.762Z,26.22
2023-04-19T03:18:28.804Z,26.21
2023-04-19T03:19:28.758Z,26.24
2023-04-19T03:20:28.754Z,26.22
2023-04-19T03:21:28.765Z,26.22
2023-04-19T03:22:28.814Z,26.22
2023-04-19T03:23:28.822Z,26.22
2023-04-19T03:24:28.837Z,26.24
2023-04-19T03:25:28.832Z,26.21
2023-04-19T03:26:28.834Z,26.19
2023-04-19T03:27:28.838Z,26.22
2023-04-19T03:28:28.851Z,26.24
2023-04-19T03:29:28.855Z,26.21
2023-04-19T03:30:28.862Z,26.21
2023-04-19T03:31:28.964Z,26.24
2023-04-19T03:32:28.993Z,26.21
2023-04-19T03:33:28.943Z,26.22
2023-04-19T03:34:28.906Z,26.21
2023-04-19T03:35:28.937Z,26.21
2023-04-19T03:36:28.959Z,26.19
2023-04-19T03:37:28.956Z,26.21
2023-04-19T03:38:28.985Z,26.22
2023-04-19T03:39:28.982Z,26.18
2023-04-19T03:40:29.033Z,26.22
2023-04-19T03:41:29.031Z,26.21
2023-04-19T03:42:29.385Z,26.21
2023-04-19T03:43:29.025Z,26.21
2023-04-19T03:44:29.049Z,26.19
2023-04-19T03:45:29.065Z,26.18
2023-04-19T03:46:29.184Z,26.21
2023-04-19T03:47:29.084Z,26.19
2023-04-19T03:48:29.135Z,26.19
2023-04-19T03:49:29.119Z,26.19
2023-04-19T03:50:29.159Z,26.19
2023-04-19T03:51:29.126Z,26.19
2023-04-19T03:52:29.162Z,26.19
2023-04-19T03:53:29.193Z,26.19
2023-04-19T03:54:29.185Z,26.19
2023-04-19T03:55:29.187Z,26.19
2023-04-19T03:56:29.218Z,26.18
2023-04-19T03:57:29.199Z,26.18
2023-04-19T03:58:29.276Z,26.19
2023-04-19T03:59:29.258Z,26.18
2023-04-19T04:00:29.277Z,26.18
2023-04-19T04:01:29.291Z,26.19
2023-04-19T04:02:29.508Z,26.09
2023-04-19T04:03:29.558Z,26.02
2023-04-19T04:04:29.497Z,25.95
2023-04-19T04:05:29.441Z,25.85
2023-04-19T04:06:29.368Z,25.79
2023-04-19T04:07:29.392Z,25.77
2023-04-19T04:08:29.476Z,25.65
2023-04-19T04:09:29.534Z,25.61
2023-04-19T04:10:29.591Z,25.55
2023-04-19T04:11:29.608Z,25.54
2023-04-19T04:12:29.669Z,25.54
2023-04-19T04:13:29.708Z,25.48
2023-04-19T04:14:29.845Z,25.51
2023-04-19T04:15:29.822Z,25.52
2023-04-19T04:16:29.794Z,25.49
2023-04-19T04:17:29.814Z,25.48
2023-04-19T04:18:29.861Z,25.44
2023-04-19T04:19:29.854Z,25.45
2023-04-19T04:20:29.930Z,25.40
2023-04-19T04:21:29.909Z,25.40
2023-04-19T04:22:29.971Z,25.33
2023-04-19T04:23:29.995Z,25.31
2023-04-19T04:24:30.028Z,25.24
2023-04-19T04:25:30.102Z,25.23
2023-04-19T04:26:30.151Z,25.31
2023-04-19T04:27:30.187Z,25.24
2023-04-19T04:28:30.232Z,25.25
2023-04-19T04:29:30.202Z,25.25
2023-04-19T04:30:30.200Z,25.27
2023-04-19T04:31:30.272Z,25.35
2023-04-19T04:32:30.296Z,25.45
2023-04-19T04:33:30.271Z,25.52
2023-04-19T04:34:30.243Z,25.57
2023-04-19T04:35:30.289Z,25.62
2023-04-19T04:36:30.302Z,25.67
2023-04-19T04:37:30.350Z,25.75
2023-04-19T04:38:30.356Z,25.79
2023-04-19T04:39:30.388Z,25.79
2023-04-19T04:40:30.430Z,25.84
2023-04-19T04:41:30.400Z,25.85
2023-04-19T04:42:30.451Z,25.89
2023-04-19T04:43:30.499Z,25.92
2023-04-19T04:44:30.495Z,25.92
2023-04-19T04:45:30.602Z,25.95
2023-04-19T04:46:30.531Z,25.96
2023-04-19T04:47:30.569Z,26.01
2023-04-19T04:48:30.592Z,25.98
2023-04-19T04:49:30.642Z,26.01
2023-04-19T04:50:30.645Z,26.04
2023-04-19T04:51:30.650Z,26.04
2023-04-19T04:52:30.671Z,26.02
2023-04-19T04:53:30.669Z,26.05
2023-04-19T04:54:30.731Z,26.08
2023-04-19T04:55:30.693Z,26.09
2023-04-19T04:56:30.840Z,26.08
2023-04-19T04:57:30.753Z,26.06
2023-04-19T04:58:30.764Z,26.08
2023-04-19T04:59:30.819Z,26.06
2023-04-19T05:00:30.826Z,26.11
2023-04-19T05:01:30.862Z,26.11
2023-04-19T05:02:30.955Z,26.09
2023-04-19T05:03:30.925Z,26.08
2023-04-19T05:04:30.949Z,26.09
2023-04-19T05:05:30.900Z,26.09
2023-04-19T05:06:30.968Z,26.09
2023-04-19T05:07:30.973Z,26.08
2023-04-19T05:08:31.010Z,26.09
2023-04-19T05:09:31.088Z,26.09
2023-04-19T05:10:31.004Z,26.11
2023-04-19T05:11:31.008Z,26.11
2023-04-19T05:12:31.060Z,26.08
2023-04-19T05:13:31.078Z,26.08
2023-04-19T05:14:31.097Z,26.06
2023-04-19T05:16:50.724Z,26.04
2023-04-19T05:17:50.740Z,26.06
2023-04-19T05:18:50.308Z,26.06
2023-04-19T05:19:50.272Z,26.08
2023-04-19T05:20:50.324Z,26.06
2023-04-19T05:21:50.315Z,26.09
2023-04-19T05:22:50.208Z,26.06
2023-04-19T05:23:50.335Z,26.08
2023-04-19T05:24:50.350Z,26.06
2023-04-19T05:25:50.334Z,26.06
2023-04-19T05:26:50.341Z,26.08
2023-04-19T05:27:50.231Z,26.08
2023-04-19T05:28:50.229Z,26.09
2023-04-19T05:29:50.346Z,26.08
2023-04-19T05:30:50.354Z,26.09
2023-04-19T05:31:50.311Z,26.09
2023-04-19T05:32:50.700Z,26.04
2023-04-19T05:33:50.261Z,26.01
2023-04-19T05:34:50.172Z,25.91
2023-04-19T05:35:50.177Z,25.77
2023-04-19T05:36:50.191Z,25.68
2023-04-19T05:37:50.253Z,25.54
2023-04-19T05:38:50.119Z,25.42
2023-04-19T05:39:50.193Z,25.37
2023-04-19T05:40:50.156Z,25.25
2023-04-19T05:41:50.272Z,25.23
2023-04-19T05:42:50.252Z,25.13
2023-04-19T05:43:50.138Z,25.07
2023-04-19T05:44:50.140Z,25.09
2023-04-19T05:45:50.266Z,25.06
2023-04-19T05:46:50.160Z,25.04
2023-04-19T05:47:50.191Z,24.98
2023-04-19T05:48:50.167Z,24.98
2023-04-19T05:49:50.490Z,25.00
2023-04-19T05:50:50.084Z,25.04
2023-04-19T05:51:50.141Z,25.04
2023-04-19T05:52:50.180Z,25.04
2023-04-19T05:53:50.092Z,25.09
2023-04-19T05:54:50.117Z,25.09
2023-04-19T05:55:50.108Z,25.14
2023-04-19T05:56:50.126Z,25.10
2023-04-19T05:57:50.147Z,25.06
2023-04-19T05:58:50.063Z,25.03
2023-04-19T05:59:50.101Z,25.07
2023-04-19T06:00:50.053Z,25.07
2023-04-19T06:01:50.074Z,25.10
2023-04-19T06:02:50.186Z,25.11
2023-04-19T06:03:50.159Z,25.11
2023-04-19T06:04:50.241Z,25.15
2023-04-19T06:05:50.010Z,25.17
2023-04-19T06:06:49.991Z,25.18
2023-04-19T06:07:55.075Z,25.20
2023-04-19T06:08:53.319Z,25.20
2023-04-19T06:09:50.143Z,25.27
2023-04-19T06:10:55.852Z,25.28
2023-04-19T06:11:51.949Z,25.34
2023-04-19T06:12:50.654Z,25.35
2023-04-19T06:13:49.911Z,25.38
2023-04-19T06:14:50.025Z,25.38
2023-04-19T06:15:50.059Z,25.35
2023-04-19T06:16:50.057Z,25.33
2023-04-19T06:17:50.221Z,25.38
2023-04-19T06:18:50.261Z,25.37
2023-04-19T06:19:50.165Z,25.31
2023-04-19T06:20:50.163Z,25.35
2023-04-19T06:21:50.224Z,25.33
2023-04-19T06:22:50.623Z,25.33
2023-04-19T06:23:50.385Z,25.40
2023-04-19T06:24:50.425Z,25.40
2023-04-19T06:25:50.641Z,25.40
2023-04-19T06:26:50.629Z,25.40
2023-04-19T06:27:50.685Z,25.47
2023-04-19T06:28:50.642Z,25.45
2023-04-19T06:29:51.415Z,25.48
2023-04-19T06:30:51.079Z,25.47
2023-04-19T06:31:50.978Z,25.47
2023-04-19T06:32:50.940Z,25.47
2023-04-19T06:33:51.022Z,25.45
2023-04-19T06:34:51.193Z,25.49
2023-04-19T06:35:51.005Z,25.49
2023-04-19T06:36:51.051Z,25.48
2023-04-19T06:37:52.077Z,25.45
2023-04-19T06:38:51.228Z,25.49
2023-04-19T06:39:51.588Z,25.51
2023-04-19T06:40:51.266Z,25.57
2023-04-19T06:41:51.340Z,25.58
2023-04-19T06:42:51.656Z,25.57
2023-04-19T06:43:51.466Z,25.60
2023-04-19T06:44:51.681Z,25.55
2023-04-19T06:45:51.977Z,25.62
2023-04-19T06:46:51.662Z,25.60
2023-04-19T06:47:52.660Z,25.65
2023-04-19T06:48:52.060Z,25.55
2023-04-19T06:49:52.641Z,25.61
2023-04-19T06:50:51.928Z,25.62
2023-04-19T06:51:51.919Z,25.55
2023-04-19T06:52:51.929Z,25.61
2023-04-19T06:53:51.959Z,25.58
2023-04-19T06:54:52.046Z,25.64
2023-04-19T06:55:52.098Z,25.62
2023-04-19T06:56:52.170Z,25.62
2023-04-19T06:57:52.309Z,25.71
2023-04-19T06:58:52.684Z,25.68
2023-04-19T06:59:52.315Z,25.68
2023-04-19T07:00:52.333Z,25.68
2023-04-19T07:01:52.564Z,25.60
2023-04-19T07:02:52.873Z,25.65
2023-04-19T07:03:55.192Z,25.69
2023-04-19T07:04:53.598Z,25.71
2023-04-19T07:05:52.530Z,25.65
2023-04-19T07:06:52.563Z,25.71
2023-04-19T07:07:52.550Z,25.71
2023-04-19T07:08:52.545Z,25.71
2023-04-19T07:09:52.554Z,25.67
2023-04-19T07:10:52.553Z,25.74
2023-04-19T07:11:52.632Z,25.74
2023-04-19T07:12:52.642Z,25.67
2023-04-19T07:13:52.486Z,25.69
2023-04-19T07:14:52.592Z,25.74
2023-04-19T07:15:52.749Z,25.72
2023-04-19T07:16:52.879Z,25.75
2023-04-19T07:17:52.554Z,25.74
2023-04-19T07:18:52.535Z,25.77
2023-04-19T07:19:52.530Z,25.78
2023-04-19T07:20:52.633Z,25.72
2023-04-19T07:21:52.569Z,25.79
2023-04-19T07:22:52.666Z,25.77
2023-04-19T07:23:52.887Z,25.84
2023-04-19T07:24:53.139Z,25.85
2023-04-19T07:25:52.865Z,25.84
2023-04-19T07:26:52.815Z,25.82
2023-04-19T07:27:52.880Z,25.82
2023-04-19T07:28:52.890Z,25.79
2023-04-19T07:29:52.993Z,25.78
2023-04-19T07:30:53.057Z,25.91
2023-04-19T07:31:53.236Z,25.96
2023-04-19T07:32:53.314Z,25.98
2023-04-19T07:33:53.253Z,25.98
2023-04-19T07:34:53.160Z,25.99
2023-04-19T07:35:53.157Z,25.98
2023-04-19T07:36:53.183Z,25.98
2023-04-19T07:37:53.829Z,25.92
2023-04-19T07:38:53.644Z,25.91
2023-04-19T07:39:53.387Z,25.79
2023-04-19T07:40:53.329Z,25.78
2023-04-19T07:41:53.397Z,25.69
2023-04-19T07:42:53.386Z,25.68
2023-04-19T07:43:53.513Z,25.58
2023-04-19T07:44:53.421Z,25.58
2023-04-19T07:45:53.634Z,25.61
2023-04-19T07:46:53.720Z,25.69
2023-04-19T07:47:53.833Z,25.60
2023-04-19T07:48:53.636Z,25.54
2023-04-19T07:49:53.751Z,25.57
2023-04-19T07:50:53.785Z,25.57
2023-04-19T07:51:53.798Z,25.62
2023-04-19T07:52:53.877Z,25.61
2023-04-19T07:53:53.971Z,25.57
2023-04-19T07:54:53.997Z,25.64
2023-04-19T07:55:54.190Z,25.65
2023-04-19T07:56:54.114Z,25.65
2023-04-19T07:57:54.165Z,25.69
2023-04-19T07:59:06.819Z,25.64
2023-04-19T07:59:55.250Z,25.68
2023-04-19T08:00:54.202Z,25.65
2023-04-19T08:01:54.273Z,25.71
2023-04-19T08:02:54.363Z,25.74
2023-04-19T08:03:54.348Z,25.78
2023-04-19T08:04:54.206Z,25.78
2023-04-19T08:05:54.208Z,25.79
2023-04-19T08:06:54.170Z,25.85
2023-04-19T08:07:54.170Z,25.85
2023-04-19T08:08:54.126Z,25.88
2023-04-19T08:09:55.259Z,25.87
2023-04-19T08:10:54.202Z,25.89
2023-04-19T08:11:54.243Z,25.92
2023-04-19T08:13:05.242Z,25.95
2023-04-19T08:14:06.848Z,25.92
2023-04-19T08:15:03.850Z,25.96
2023-04-19T08:17:54.252Z,25.92
2023-04-19T08:18:54.237Z,25.99
2023-04-19T08:19:54.242Z,26.02
2023-04-19T08:20:54.267Z,26.02
2023-04-19T08:21:54.231Z,25.99
2023-04-19T08:22:54.213Z,25.96
2023-04-19T08:24:54.196Z,25.99
2023-04-19T08:25:54.210Z,25.91
2023-04-19T08:26:54.461Z,25.98
2023-04-19T08:27:54.157Z,25.98
2023-04-19T08:28:54.134Z,26.05
2023-04-19T08:29:54.146Z,26.04
2023-04-19T08:30:54.184Z,25.93
2023-04-19T08:31:54.204Z,26.01
2023-04-19T08:32:56.919Z,25.96
2023-04-19T08:33:54.178Z,25.92
2023-04-19T08:34:54.151Z,25.93
2023-04-19T08:35:54.125Z,25.91
2023-04-19T08:37:03.233Z,25.89
2023-04-19T08:37:55.117Z,25.71
2023-04-19T08:39:04.252Z,25.77
2023-04-19T08:39:55.124Z,25.71
2023-04-19T08:40:54.085Z,25.60
2023-04-19T08:42:04.825Z,25.64
2023-04-19T08:42:55.135Z,25.52
2023-04-19T08:43:54.141Z,25.44
2023-04-19T08:45:19.113Z,25.49
2023-04-19T08:45:55.112Z,25.49
2023-04-19T08:46:54.146Z,25.47
2023-04-19T08:48:00.734Z,25.45
2023-04-19T08:48:55.121Z,25.48
2023-04-19T08:50:08.607Z,25.52
2023-04-19T08:51:05.010Z,25.48
2023-04-19T08:51:55.069Z,25.60
2023-04-19T08:52:58.629Z,25.65
2023-04-19T08:54:01.525Z,25.62
2023-04-19T08:54:53.986Z,25.61
2023-04-19T08:56:54.002Z,25.65
2023-04-19T08:57:53.976Z,25.67
2023-04-19T08:59:07.574Z,25.69
2023-04-19T08:59:54.970Z,25.74
2023-04-19T09:00:53.935Z,25.75
2023-04-19T09:01:54.067Z,25.72
2023-04-19T09:02:54.157Z,25.75
2023-04-19T09:04:03.311Z,25.81
2023-04-19T09:04:55.112Z,25.81
2023-04-19T09:05:54.068Z,25.91
2023-04-19T09:06:53.931Z,25.89
2023-04-19T09:07:53.935Z,25.81
2023-04-19T09:08:53.940Z,25.82
2023-04-19T09:10:02.712Z,25.79
2023-04-19T09:10:54.864Z,25.84
2023-04-19T09:11:53.897Z,25.84
2023-04-19T09:12:53.867Z,25.82
2023-04-19T09:13:53.852Z,25.79
2023-04-19T09:15:01.936Z,25.82
2023-04-19T09:15:54.886Z,25.84
2023-04-19T09:16:53.849Z,25.89
2023-04-19T09:17:53.848Z,25.81
2023-04-19T09:19:02.464Z,25.89
2023-04-19T09:19:54.826Z,25.89
2023-04-19T09:20:53.810Z,25.89
2023-04-19T09:21:54.547Z,25.93
2023-04-19T09:22:53.830Z,25.98
2023-04-19T09:23:53.777Z,25.98
2023-04-19T09:26:54.888Z,26.04
2023-04-19T09:27:53.720Z,26.01
2023-04-19T09:28:53.754Z,26.09
2023-04-19T09:29:53.771Z,26.05
2023-04-19T09:31:53.918Z,26.09
2023-04-19T09:32:53.762Z,26.08
2023-04-19T09:33:53.743Z,26.14
2023-04-19T09:34:53.787Z,26.11
2023-04-19T09:35:53.721Z,26.14
2023-04-19T09:37:04.328Z,26.19
2023-04-19T09:38:04.849Z,26.32
2023-04-19T09:38:54.676Z,26.35
2023-04-19T09:39:53.688Z,26.46
2023-04-19T09:40:53.679Z,26.53
2023-04-19T09:41:53.726Z,26.60
2023-04-19T09:43:04.345Z,26.63
2023-04-19T09:45:27.489Z,26.71
2023-04-19T09:45:54.630Z,26.75
2023-04-19T09:46:54.082Z,26.76
2023-04-19T09:47:53.664Z,26.78
2023-04-19T09:48:53.638Z,26.85
2023-04-19T09:49:53.953Z,26.86
2023-04-19T09:50:59.122Z,26.89
2023-04-19T09:51:54.563Z,26.90
2023-04-19T09:52:53.638Z,26.96
2023-04-19T09:53:53.568Z,26.93
2023-04-19T09:54:53.570Z,27.02
2023-04-19T09:56:01.655Z,27.02
2023-04-19T09:56:57.413Z,27.10
2023-04-19T09:57:53.531Z,27.09
2023-04-19T09:58:58.809Z,27.09
2023-04-19T09:59:54.593Z,27.13
2023-04-19T10:01:02.737Z,27.17
2023-04-19T10:01:54.599Z,27.13
2023-04-19T10:02:53.590Z,27.11
2023-04-19T10:03:53.778Z,27.23
2023-04-19T10:05:11.364Z,27.16
2023-04-19T10:05:54.581Z,27.20
2023-04-19T10:07:19.439Z,27.23
2023-04-19T10:07:58.518Z,27.22
2023-04-19T10:08:54.566Z,27.27
2023-04-19T10:09:55.056Z,27.30
2023-04-19T10:10:53.471Z,27.36
2023-04-19T10:11:56.250Z,27.37
2023-04-19T10:13:53.445Z,27.37
2023-04-19T10:14:53.518Z,27.40
2023-04-19T10:15:57.303Z,27.40
2023-04-19T10:16:54.476Z,27.50
2023-04-19T10:17:53.486Z,27.56
2023-04-19T10:18:53.421Z,27.56
2023-04-19T10:19:53.444Z,27.54
2023-04-19T10:20:53.439Z,27.54
2023-04-19T10:21:53.394Z,27.61
2023-04-19T10:22:53.403Z,27.54
2023-04-19T10:23:53.362Z,27.60
2023-04-19T10:24:53.362Z,27.61
2023-04-19T10:25:53.392Z,27.68
2023-04-19T10:26:53.403Z,27.79
2023-04-19T10:27:53.422Z,27.84
2023-04-19T10:28:53.391Z,27.86
2023-04-19T10:29:53.451Z,27.81
2023-04-19T10:30:53.452Z,27.83
2023-04-19T10:31:53.529Z,27.79
2023-04-19T10:32:53.511Z,27.77
2023-04-19T10:33:53.508Z,27.77
2023-04-19T10:34:53.488Z,27.81
2023-04-19T10:35:53.463Z,27.83
2023-04-19T10:36:53.551Z,27.83
2023-04-19T10:37:53.614Z,27.88
2023-04-19T10:38:53.664Z,27.91
2023-04-19T10:39:53.669Z,27.88
2023-04-19T10:40:53.698Z,27.86
2023-04-19T10:41:53.786Z,27.90
2023-04-19T10:42:53.795Z,27.93
2023-04-19T10:43:53.848Z,27.91
2023-04-19T10:44:54.029Z,27.96
2023-04-19T10:45:54.006Z,28.00
2023-04-19T10:46:54.027Z,27.94
2023-04-19T10:47:54.080Z,28.07
2023-04-19T10:48:54.202Z,27.98
2023-04-19T10:49:54.189Z,27.98
2023-04-19T10:50:54.252Z,28.01
2023-04-19T10:51:54.274Z,28.01
2023-04-19T10:52:54.352Z,28.03
2023-04-19T10:53:54.404Z,28.10
2023-04-19T10:54:54.443Z,28.07
2023-04-19T10:55:54.566Z,28.07
2023-04-19T10:56:54.584Z,28.07
2023-04-19T10:57:54.622Z,28.07
2023-04-19T10:58:54.727Z,28.05
2023-04-19T10:59:54.739Z,28.05
2023-04-19T11:00:54.756Z,28.12
2023-04-19T11:01:55.054Z,28.11
2023-04-19T11:02:55.039Z,28.08
2023-04-19T11:03:55.176Z,28.11
2023-04-19T11:04:54.942Z,28.15
2023-04-19T11:05:54.971Z,28.18
2023-04-19T11:06:55.037Z,28.20
2023-04-19T11:07:55.109Z,28.18
2023-04-19T11:08:55.119Z,28.15
2023-04-19T11:09:55.260Z,28.20
2023-04-19T11:10:55.217Z,28.25
2023-04-19T11:11:55.265Z,28.22
2023-04-19T11:12:55.330Z,28.22
2023-04-19T11:13:55.373Z,28.27
2023-04-19T11:14:55.394Z,28.21
2023-04-19T11:15:55.506Z,28.31
2023-04-19T11:16:55.549Z,28.40
2023-04-19T11:18:11.395Z,28.21
2023-04-19T11:18:56.568Z,28.28
2023-04-19T11:19:55.494Z,28.14
2023-04-19T11:20:55.534Z,28.17
2023-04-19T11:21:55.500Z,28.14
2023-04-19T11:22:55.508Z,27.97
2023-04-19T11:23:55.510Z,28.11
2023-04-19T11:24:55.472Z,28.00
2023-04-19T11:25:55.517Z,27.71
2023-04-19T11:26:55.995Z,27.74
2023-04-19T11:27:55.523Z,27.70
2023-04-19T11:28:55.447Z,27.46
2023-04-19T11:29:55.458Z,27.60
2023-04-19T11:30:55.479Z,27.63
2023-04-19T11:31:55.600Z,27.58
2023-04-19T11:32:55.582Z,27.63
2023-04-19T11:33:55.416Z,27.61
2023-04-19T11:34:55.445Z,27.61
2023-04-19T11:35:55.431Z,27.60
2023-04-19T11:36:55.458Z,27.63
2023-04-19T11:37:55.484Z,27.75
2023-04-19T11:38:55.589Z,27.80
2023-04-19T11:39:55.614Z,27.86
2023-04-19T11:40:55.669Z,27.90
2023-04-19T11:41:55.727Z,27.91
2023-04-19T11:42:55.818Z,27.93
2023-04-19T11:43:55.789Z,27.98
2023-04-19T11:44:55.863Z,28.01
2023-04-19T11:45:55.876Z,27.97
2023-04-19T11:46:55.977Z,28.01
2023-04-19T11:47:56.025Z,28.01
2023-04-19T11:48:55.999Z,27.97
2023-04-19T11:49:56.028Z,28.00
2023-04-19T11:50:56.046Z,28.01
2023-04-19T11:51:56.056Z,27.84
2023-04-19T11:52:56.121Z,27.90
2023-04-19T11:53:56.212Z,27.91
2023-04-19T11:54:56.250Z,27.96
2023-04-19T11:55:56.298Z,27.98
2023-04-19T11:56:56.321Z,27.98
2023-04-19T11:57:56.396Z,28.01
2023-04-19T11:58:56.428Z,27.98
2023-04-19T11:59:58.061Z,28.01
2023-04-19T12:00:56.633Z,27.98
2023-04-19T12:01:56.616Z,27.98
2023-04-19T12:02:56.810Z,28.01
2023-04-19T12:03:56.917Z,27.98
2023-04-19T12:04:56.869Z,28.04
2023-04-19T12:05:57.051Z,28.04
2023-04-19T12:06:56.896Z,28.04
2023-04-19T12:07:56.881Z,28.05
2023-04-19T12:08:56.937Z,28.04
2023-04-19T12:09:56.953Z,28.03
2023-04-19T12:10:56.902Z,28.04
2023-04-19T12:11:56.939Z,28.03
2023-04-19T12:12:56.926Z,27.98
2023-04-19T12:13:56.920Z,28.00
2023-04-19T12:14:56.958Z,27.96
2023-04-19T12:15:56.961Z,27.98
2023-04-19T12:16:56.971Z,27.98
2023-04-19T12:17:57.654Z,27.93
2023-04-19T12:18:56.961Z,27.96
2023-04-19T12:19:57.124Z,27.97
2023-04-19T12:20:58.281Z,27.93
2023-04-19T12:21:57.038Z,27.94
2023-04-19T12:22:56.980Z,27.93
2023-04-19T12:23:57.051Z,27.97
2023-04-19T12:24:56.996Z,27.96
2023-04-19T12:25:57.012Z,27.96
2023-04-19T12:26:57.110Z,27.98
2023-04-19T12:27:57.165Z,27.97
2023-04-19T12:28:57.143Z,27.98
2023-04-19T12:29:57.138Z,27.91
2023-04-19T12:30:57.220Z,27.96
2023-04-19T12:31:57.317Z,27.94
2023-04-19T12:32:57.352Z,27.87
2023-04-19T12:33:57.422Z,27.93
2023-04-19T12:34:57.436Z,27.91
2023-04-19T12:35:57.503Z,27.91
2023-04-19T12:36:57.564Z,27.96
2023-04-19T12:37:57.684Z,27.94
2023-04-19T12:38:57.650Z,27.94
2023-04-19T12:39:57.710Z,27.94
2023-04-19T12:40:57.762Z,27.96
2023-04-19T12:41:57.891Z,27.94
2023-04-19T12:42:57.911Z,27.97
2023-04-19T12:43:57.978Z,27.98
2023-04-19T12:44:58.031Z,27.97
2023-04-19T12:45:58.176Z,27.97
2023-04-19T12:46:58.173Z,28.00
2023-04-19T12:47:58.242Z,28.03
2023-04-19T12:48:58.470Z,28.00
2023-04-19T12:49:58.664Z,28.01
2023-04-19T12:50:58.569Z,28.03
2023-04-19T12:51:58.353Z,28.04
2023-04-19T12:52:58.409Z,28.05
2023-04-19T12:53:58.467Z,28.04
2023-04-19T12:54:58.521Z,28.03
2023-04-19T12:55:58.614Z,28.05
2023-04-19T12:56:58.650Z,28.05
2023-04-19T12:57:58.674Z,28.05
2023-04-19T12:58:58.808Z,28.07
2023-04-19T12:59:58.811Z,28.05
2023-04-19T13:00:58.876Z,28.05
2023-04-19T13:01:58.976Z,28.05
2023-04-19T13:02:59.147Z,28.05